Time;durP1;ratioP1;P1;durP2;ratioP2;P2;SDS_P1;SDS_P2;PMS_P1;PMS_P2;Temp;Humidity;BMP_temperature;BMP_pressure;BME280_temperature;BME280_humidity;BME280_pressure;Samples;Min_cycle;Max_cycle;Signal;HPM_P1;HPM_P2
2021/08/04 00:00:48;;;;;;;7.97;5.70;;;;;;;;;;5094898;28;20488;-72
2021/08/04 00:03:14;;;;;;;6.35;5.50;;;;;;;;;;5095153;28;20354;-72
2021/08/04 00:05:40;;;;;;;7.70;5.75;;;;;;;;;;5094529;28;20032;-73
2021/08/04 00:08:06;;;;;;;12.48;4.95;;;;;;;;;;5094828;28;20027;-72
2021/08/04 00:10:32;;;;;;;9.75;5.50;;;;;;;;;;5094741;28;20028;-72
2021/08/04 00:12:58;;;;;;;8.65;4.75;;;;;;;;;;5095095;28;20024;-72
2021/08/04 00:15:24;;;;;;;6.68;5.38;;;;;;;;;;5095028;28;20056;-72
2021/08/04 00:17:50;;;;;;;4.90;4.30;;;;;;;;;;5094737;28;20035;-72
2021/08/04 00:20:17;;;;;;;9.07;4.65;;;;;;;;;;5094273;28;20065;-72
2021/08/04 00:22:43;;;;;;;5.47;4.95;;;;;;;;;;5094507;28;20032;-72
2021/08/04 00:25:09;;;;;;;6.28;5.03;;;;;;;;;;5094490;28;20043;-72
2021/08/04 00:27:35;;;;;;;5.13;4.63;;;;;;;;;;5094502;28;20032;-72
2021/08/04 00:30:01;;;;;;;16.75;6.30;;;;;;;;;;5094606;28;20495;-72
2021/08/04 00:32:27;;;;;;;11.35;4.47;;;;;;;;;;5094311;28;20028;-72
2021/08/04 00:34:53;;;;;;;8.15;5.28;;;;;;;;;;5094280;28;20077;-72
2021/08/04 00:37:19;;;;;;;5.47;4.97;;;;;;;;;;5094960;28;20040;-72
2021/08/04 00:39:46;;;;;;;6.03;4.35;;;;;;;;;;5094105;28;20016;-72
2021/08/04 00:42:12;;;;;;;10.30;4.75;;;;;;;;;;5094237;28;20073;-72
2021/08/04 00:44:38;;;;;;;5.50;4.78;;;;;;;;;;5094627;28;20076;-72
2021/08/04 00:47:05;;;;;;;4.85;4.35;;;;;;;;;;5094181;28;20031;-72
2021/08/04 00:49:31;;;;;;;5.85;4.85;;;;;;;;;;5094020;28;20045;-72
2021/08/04 00:51:57;;;;;;;5.07;4.53;;;;;;;;;;5094746;28;20024;-73
2021/08/04 00:54:23;;;;;;;5.35;4.45;;;;;;;;;;5094418;28;20516;-72
2021/08/04 00:56:49;;;;;;;6.80;4.60;;;;;;;;;;5093781;28;20367;-72
2021/08/04 00:59:15;;;;;;;5.28;4.50;;;;;;;;;;5093463;28;20024;-72
2021/08/04 01:01:45;;;;;;;6.22;4.22;;;;;;;;;;5093959;28;20024;-72
2021/08/04 01:04:12;;;;;;;14.80;4.75;;;;;;;;;;5093644;28;20148;-72
2021/08/04 01:06:46;;;;;;;4.95;4.30;;;;;;;;;;5093918;28;20029;-72
2021/08/04 01:09:12;;;;;;;7.35;4.50;;;;;;;;;;5094091;28;20035;-72
2021/08/04 01:11:39;;;;;;;6.50;4.03;;;;;;;;;;5093896;28;20515;-72
2021/08/04 01:14:07;;;;;;;4.38;3.92;;;;;;;;;;5094020;28;20024;-72
2021/08/04 01:16:33;;;;;;;5.07;3.83;;;;;;;;;;5093902;28;20458;-72
2021/08/04 01:19:10;;;;;;;6.95;4.28;;;;;;;;;;5093546;28;20466;-72
2021/08/04 01:21:56;;;;;;;4.05;3.75;;;;;;;;;;5094370;28;20059;-73
2021/08/04 01:24:26;;;;;;;4.70;4.20;;;;;;;;;;5078729;28;20032;-73
2021/08/04 01:26:52;;;;;;;5.72;4.75;;;;;;;;;;5093579;28;20127;-73
2021/08/04 01:29:19;;;;;;;4.57;4.03;;;;;;;;;;5093505;28;20031;-73
2021/08/04 01:31:45;;;;;;;6.70;4.38;;;;;;;;;;5093858;28;20031;-71
2021/08/04 01:34:11;;;;;;;4.78;4.30;;;;;;;;;;5093895;28;20057;-72
2021/08/04 01:36:38;;;;;;;7.10;4.43;;;;;;;;;;5093291;28;20493;-72
2021/08/04 01:39:04;;;;;;;5.15;4.50;;;;;;;;;;5093608;28;20488;-72
2021/08/04 01:41:31;;;;;;;4.78;4.28;;;;;;;;;;5093718;28;20103;-72
2021/08/04 01:43:57;;;;;;;5.82;3.63;;;;;;;;;;5093232;28;20111;-72
2021/08/04 01:46:23;;;;;;;7.28;3.85;;;;;;;;;;5093444;28;20020;-72
2021/08/04 01:48:49;;;;;;;6.05;5.03;;;;;;;;;;5094036;28;20034;-72
2021/08/04 01:51:15;;;;;;;6.82;4.70;;;;;;;;;;5093588;28;20032;-72
2021/08/04 01:53:41;;;;;;;4.30;3.90;;;;;;;;;;5093319;28;20056;-71
2021/08/04 01:56:07;;;;;;;6.68;4.68;;;;;;;;;;5100844;28;20477;-72
2021/08/04 01:58:33;;;;;;;4.38;3.97;;;;;;;;;;5093292;28;20020;-72
2021/08/04 02:00:59;;;;;;;4.10;3.63;;;;;;;;;;5093367;28;20023;-71
2021/08/04 02:03:26;;;;;;;5.50;4.88;;;;;;;;;;5093503;28;20024;-72
2021/08/04 02:05:52;;;;;;;4.20;3.80;;;;;;;;;;5092967;28;20435;-72
2021/08/04 02:08:32;;;;;;;4.43;3.78;;;;;;;;;;5093327;28;20027;-71
2021/08/04 02:11:02;;;;;;;4.00;3.60;;;;;;;;;;5094312;28;20020;-72
2021/08/04 02:13:34;;;;;;;7.55;4.05;;;;;;;;;;5097499;28;20059;-72
2021/08/04 02:16:04;;;;;;;4.15;3.75;;;;;;;;;;5097254;28;20453;-72
2021/08/04 02:18:30;;;;;;;7.40;4.15;;;;;;;;;;5097295;28;20032;-72
2021/08/04 02:20:57;;;;;;;6.82;3.72;;;;;;;;;;5096931;28;20023;-72
2021/08/04 02:23:23;;;;;;;4.90;3.47;;;;;;;;;;5096937;28;20024;-72
2021/08/04 02:25:50;;;;;;;4.53;4.13;;;;;;;;;;5096634;28;20499;-72
2021/08/04 02:28:19;;;;;;;5.15;4.65;;;;;;;;;;5096788;28;20119;-72
2021/08/04 02:30:46;;;;;;;6.60;4.05;;;;;;;;;;5097044;28;20031;-72
2021/08/04 02:33:12;;;;;;;6.15;3.40;;;;;;;;;;5096686;28;20024;-72
2021/08/04 02:35:38;;;;;;;4.93;3.72;;;;;;;;;;5096625;28;20031;-73
2021/08/04 02:38:04;;;;;;;4.88;3.60;;;;;;;;;;5096636;28;20024;-73
2021/08/04 02:40:30;;;;;;;5.18;4.07;;;;;;;;;;5096346;28;20133;-73
2021/08/04 02:42:56;;;;;;;3.45;3.25;;;;;;;;;;5096491;28;20485;-72
2021/08/04 02:45:22;;;;;;;5.07;3.58;;;;;;;;;;5096860;28;20487;-72
2021/08/04 02:47:48;;;;;;;5.88;3.90;;;;;;;;;;5096475;28;20111;-72
2021/08/04 02:50:14;;;;;;;4.63;3.58;;;;;;;;;;5096362;28;20031;-72
2021/08/04 02:52:41;;;;;;;4.97;3.38;;;;;;;;;;5095952;28;20056;-72
2021/08/04 02:55:07;;;;;;;7.13;3.80;;;;;;;;;;5096280;28;20158;-72
2021/08/04 02:57:33;;;;;;;4.20;3.30;;;;;;;;;;5096245;28;20473;-72
2021/08/04 02:59:59;;;;;;;4.82;3.40;;;;;;;;;;5096250;28;20462;-72
2021/08/04 03:02:25;;;;;;;5.00;3.13;;;;;;;;;;5096491;28;20358;-73
2021/08/04 03:04:51;;;;;;;4.47;3.97;;;;;;;;;;5096400;28;20519;-73
2021/08/04 03:07:17;;;;;;;4.50;3.63;;;;;;;;;;5096239;28;20432;-73
2021/08/04 03:09:43;;;;;;;3.65;3.30;;;;;;;;;;5095899;28;20024;-72
2021/08/04 03:12:09;;;;;;;4.88;3.63;;;;;;;;;;5096459;28;20082;-72
2021/08/04 03:14:36;;;;;;;3.45;2.85;;;;;;;;;;5096367;28;20028;-72
2021/08/04 03:17:02;;;;;;;3.53;3.22;;;;;;;;;;5095906;28;20020;-72
2021/08/04 03:19:28;;;;;;;4.75;3.38;;;;;;;;;;5096095;28;20032;-72
2021/08/04 03:21:54;;;;;;;3.35;3.05;;;;;;;;;;5095597;28;20028;-72
2021/08/04 03:24:20;;;;;;;3.63;3.03;;;;;;;;;;5095224;28;20032;-72
2021/08/04 03:26:46;;;;;;;4.75;3.15;;;;;;;;;;5095617;28;20028;-73
2021/08/04 03:29:12;;;;;;;4.47;3.70;;;;;;;;;;5095613;28;20020;-73
2021/08/04 03:31:38;;;;;;;4.72;3.20;;;;;;;;;;5095729;28;20024;-73
2021/08/04 03:34:04;;;;;;;5.25;3.33;;;;;;;;;;5095545;28;20024;-72
2021/08/04 03:36:30;;;;;;;4.03;3.38;;;;;;;;;;5095468;28;20020;-72
2021/08/04 03:38:56;;;;;;;3.65;3.08;;;;;;;;;;5095042;28;20027;-72
2021/08/04 03:41:22;;;;;;;4.55;2.72;;;;;;;;;;5095372;28;20024;-72
2021/08/04 03:43:48;;;;;;;6.00;3.15;;;;;;;;;;5095839;28;20020;-72
2021/08/04 03:46:14;;;;;;;4.20;2.83;;;;;;;;;;5094945;28;20058;-72
2021/08/04 03:48:41;;;;;;;3.35;3.05;;;;;;;;;;5095218;28;20028;-72
2021/08/04 03:51:07;;;;;;;3.85;3.47;;;;;;;;;;5095119;28;20488;-72
2021/08/04 03:53:33;;;;;;;6.35;3.15;;;;;;;;;;5094590;28;20048;-72
2021/08/04 03:55:59;;;;;;;3.88;3.42;;;;;;;;;;5095118;28;20063;-72
2021/08/04 03:58:25;;;;;;;3.40;3.10;;;;;;;;;;5094856;28;20491;-72
2021/08/04 04:00:51;;;;;;;7.90;3.00;;;;;;;;;;5094637;28;20028;-73
2021/08/04 04:03:17;;;;;;;3.20;2.67;;;;;;;;;;5095305;28;20031;-72
2021/08/04 04:05:44;;;;;;;4.45;3.17;;;;;;;;;;5094995;28;20047;-73
2021/08/04 04:08:10;;;;;;;5.20;2.72;;;;;;;;;;5094786;28;20024;-73
2021/08/04 04:10:36;;;;;;;4.15;2.78;;;;;;;;;;5094565;28;20020;-73
2021/08/04 04:13:02;;;;;;;6.15;3.28;;;;;;;;;;5095319;28;20020;-73
2021/08/04 04:15:28;;;;;;;2.90;2.60;;;;;;;;;;5094706;28;20028;-73
2021/08/04 04:17:54;;;;;;;2.80;2.53;;;;;;;;;;5095001;28;20077;-73
2021/08/04 04:20:20;;;;;;;3.53;3.22;;;;;;;;;;5094772;28;20023;-73
2021/08/04 04:22:46;;;;;;;3.53;3.22;;;;;;;;;;5094247;28;20115;-72
2021/08/04 04:25:12;;;;;;;4.72;2.80;;;;;;;;;;5094499;28;20381;-73
2021/08/04 04:27:39;;;;;;;2.90;2.67;;;;;;;;;;5094620;28;20106;-73
2021/08/04 04:30:05;;;;;;;2.85;2.45;;;;;;;;;;5094902;28;20024;-72
2021/08/04 04:32:31;;;;;;;2.60;2.40;;;;;;;;;;5094265;28;20024;-73
2021/08/04 04:34:57;;;;;;;2.95;2.45;;;;;;;;;;5093542;28;20032;-73
2021/08/04 04:37:23;;;;;;;2.78;2.53;;;;;;;;;;5094262;28;20054;-73
2021/08/04 04:39:49;;;;;;;3.75;2.30;;;;;;;;;;5094272;28;20059;-73
2021/08/04 04:42:15;;;;;;;3.83;2.65;;;;;;;;;;5094154;28;20041;-73
2021/08/04 04:44:41;;;;;;;3.45;2.42;;;;;;;;;;5094696;28;20078;-72
2021/08/04 04:47:07;;;;;;;2.80;2.42;;;;;;;;;;5094191;28;20027;-73
2021/08/04 04:49:33;;;;;;;2.58;2.38;;;;;;;;;;5094395;28;20162;-73
2021/08/04 04:52:00;;;;;;;3.05;2.75;;;;;;;;;;5094078;28;20020;-72
2021/08/04 04:54:26;;;;;;;4.10;2.45;;;;;;;;;;5094624;28;20052;-73
2021/08/04 04:56:52;;;;;;;2.50;2.30;;;;;;;;;;5094126;28;20073;-73
2021/08/04 04:59:18;;;;;;;2.75;2.35;;;;;;;;;;5094039;28;20093;-72
2021/08/04 05:01:44;;;;;;;2.30;2.10;;;;;;;;;;5093969;28;20020;-73
2021/08/04 05:04:10;;;;;;;2.30;2.10;;;;;;;;;;5094158;28;20146;-72
2021/08/04 05:06:36;;;;;;;2.58;2.13;;;;;;;;;;5093898;28;20045;-72
2021/08/04 05:09:03;;;;;;;2.45;2.25;;;;;;;;;;5094591;28;20035;-72
2021/08/04 05:11:29;;;;;;;2.55;2.35;;;;;;;;;;5094202;28;20028;-72
2021/08/04 05:13:55;;;;;;;2.90;2.55;;;;;;;;;;5094208;28;20483;-72
2021/08/04 05:16:21;;;;;;;4.00;2.72;;;;;;;;;;5093665;28;20374;-72
2021/08/04 05:18:47;;;;;;;2.13;1.92;;;;;;;;;;5093712;28;20024;-73
2021/08/04 05:21:13;;;;;;;2.92;2.65;;;;;;;;;;5093707;28;20093;-73
2021/08/04 05:23:39;;;;;;;2.42;2.15;;;;;;;;;;5094260;28;20032;-73
2021/08/04 05:26:05;;;;;;;2.20;1.98;;;;;;;;;;5094298;28;20040;-73
2021/08/04 05:28:31;;;;;;;3.05;2.28;;;;;;;;;;5093743;28;20016;-73
2021/08/04 05:30:58;;;;;;;2.38;2.15;;;;;;;;;;5093663;28;20022;-72
2021/08/04 05:33:24;;;;;;;2.10;1.90;;;;;;;;;;5094042;28;20098;-73
2021/08/04 05:35:50;;;;;;;2.08;1.88;;;;;;;;;;5093689;28;20116;-72
2021/08/04 05:38:16;;;;;;;3.70;3.17;;;;;;;;;;5093522;28;20024;-72
2021/08/04 05:40:42;;;;;;;2.40;2.13;;;;;;;;;;5094134;28;20032;-72
2021/08/04 05:43:08;;;;;;;2.47;2.00;;;;;;;;;;5093461;28;20094;-72
2021/08/04 05:45:34;;;;;;;3.13;2.30;;;;;;;;;;5094415;28;20040;-72
2021/08/04 05:48:00;;;;;;;6.35;2.20;;;;;;;;;;5097846;28;20064;-72
2021/08/04 05:50:26;;;;;;;2.88;2.33;;;;;;;;;;5097627;28;20051;-72
2021/08/04 05:52:52;;;;;;;3.00;2.03;;;;;;;;;;5097230;28;20058;-72
2021/08/04 05:55:18;;;;;;;5.05;1.98;;;;;;;;;;5098182;28;20024;-73
2021/08/04 05:57:44;;;;;;;19.10;2.17;;;;;;;;;;5087296;28;20039;-73
2021/08/04 06:00:11;;;;;;;4.22;2.45;;;;;;;;;;5086513;28;20038;-73
2021/08/04 06:02:37;;;;;;;3.15;2.90;;;;;;;;;;5086583;28;20046;-73
2021/08/04 06:05:03;;;;;;;1.92;1.60;;;;;;;;;;5084634;28;20038;-72
2021/08/04 06:07:29;;;;;;;2.45;2.25;;;;;;;;;;5086162;28;20133;-72
2021/08/04 06:09:55;;;;;;;2.58;2.05;;;;;;;;;;5085858;28;20024;-73
2021/08/04 06:12:22;;;;;;;4.47;2.30;;;;;;;;;;5084567;28;20020;-72
2021/08/04 06:14:48;;;;;;;3.65;2.40;;;;;;;;;;5086187;28;20099;-72
2021/08/04 06:17:14;;;;;;;3.60;2.25;;;;;;;;;;5085201;28;20016;-71
2021/08/04 06:19:40;;;;;;;1.98;1.83;;;;;;;;;;5084411;28;20114;-72
2021/08/04 06:22:06;;;;;;;2.50;2.17;;;;;;;;;;5085953;28;20069;-71
2021/08/04 06:24:34;;;;;;;2.95;2.60;;;;;;;;;;5084948;28;20111;-72
2021/08/04 06:27:00;;;;;;;2.78;2.42;;;;;;;;;;5084936;28;20027;-72
2021/08/04 06:29:26;;;;;;;2.97;2.22;;;;;;;;;;5086525;28;20028;-75
2021/08/04 06:31:52;;;;;;;3.28;2.33;;;;;;;;;;5085055;28;20470;-72
2021/08/04 06:34:18;;;;;;;2.20;2.00;;;;;;;;;;5086566;28;20569;-73
2021/08/04 06:36:44;;;;;;;4.82;2.20;;;;;;;;;;5084762;28;20103;-72
2021/08/04 06:39:10;;;;;;;2.35;2.10;;;;;;;;;;5086465;28;20028;-72
2021/08/04 06:41:36;;;;;;;2.53;2.22;;;;;;;;;;5084368;28;20016;-72
2021/08/04 06:44:02;;;;;;;2.13;1.92;;;;;;;;;;5084942;28;20066;-75
2021/08/04 06:46:36;;;;;;;2.33;1.73;;;;;;;;;;5085809;28;20040;-72
2021/08/04 06:49:02;;;;;;;14.05;2.35;;;;;;;;;;5093223;28;20369;-73
2021/08/04 06:51:29;;;;;;;10.95;2.20;;;;;;;;;;5095732;28;20166;-71
2021/08/04 06:53:55;;;;;;;5.45;2.00;;;;;;;;;;5096245;28;20059;-71
2021/08/04 06:56:21;;;;;;;11.32;3.08;;;;;;;;;;5096045;28;20069;-72
2021/08/04 06:58:47;;;;;;;2.95;2.38;;;;;;;;;;5095392;28;20055;-72
2021/08/04 07:01:13;;;;;;;10.13;2.78;;;;;;;;;;5096011;28;20359;-73
2021/08/04 07:03:40;;;;;;;2.90;1.58;;;;;;;;;;5096069;28;20024;-73
2021/08/04 07:06:06;;;;;;;4.13;2.10;;;;;;;;;;5095662;28;20075;-73
2021/08/04 07:08:32;;;;;;;4.03;2.08;;;;;;;;;;5095944;28;20139;-72
2021/08/04 07:10:58;;;;;;;4.50;2.60;;;;;;;;;;5095919;28;20469;-73
2021/08/04 07:13:24;;;;;;;6.75;2.50;;;;;;;;;;5096084;28;20055;-71
2021/08/04 07:15:51;;;;;;;3.42;2.97;;;;;;;;;;5096058;28;20028;-73
2021/08/04 07:18:17;;;;;;;2.88;2.40;;;;;;;;;;5096607;28;20027;-73
2021/08/04 07:20:43;;;;;;;3.58;2.78;;;;;;;;;;5096176;28;20074;-73
2021/08/04 07:23:09;;;;;;;2.25;2.03;;;;;;;;;;5096726;28;20477;-73
2021/08/04 07:25:35;;;;;;;14.93;2.40;;;;;;;;;;5096807;28;20075;-73
2021/08/04 07:28:01;;;;;;;2.05;1.80;;;;;;;;;;5096097;28;20016;-73
2021/08/04 07:30:27;;;;;;;6.60;2.15;;;;;;;;;;5096350;28;20385;-73
2021/08/04 07:32:53;;;;;;;3.42;1.98;;;;;;;;;;5095993;28;20121;-73
2021/08/04 07:35:19;;;;;;;3.95;2.90;;;;;;;;;;5095639;28;20035;-72
2021/08/04 07:37:45;;;;;;;30.58;4.35;;;;;;;;;;5096050;28;20477;-72
2021/08/04 07:40:12;;;;;;;2.63;2.17;;;;;;;;;;5094296;28;20478;-72
2021/08/04 07:42:38;;;;;;;3.72;2.58;;;;;;;;;;5094909;28;20020;-72
2021/08/04 07:45:05;;;;;;;8.45;2.70;;;;;;;;;;5094889;28;20035;-72
2021/08/04 07:47:31;;;;;;;3.88;2.60;;;;;;;;;;5096034;28;20036;-72
2021/08/04 07:49:57;;;;;;;5.80;2.88;;;;;;;;;;5096282;28;20357;-72
2021/08/04 07:52:23;;;;;;;4.50;2.60;;;;;;;;;;5095443;28;20534;-72
2021/08/04 07:54:49;;;;;;;2.88;2.60;;;;;;;;;;5096333;28;20417;-72
2021/08/04 07:57:15;;;;;;;4.95;2.72;;;;;;;;;;5095734;28;20377;-72
2021/08/04 07:59:41;;;;;;;4.18;2.72;;;;;;;;;;5095771;28;20073;-72
2021/08/04 08:02:07;;;;;;;9.45;3.47;;;;;;;;;;5095762;28;20020;-72
2021/08/04 08:04:33;;;;;;;6.80;3.58;;;;;;;;;;5095391;28;20440;-72
2021/08/04 08:06:59;;;;;;;5.43;2.28;;;;;;;;;;5096297;28;20024;-72
2021/08/04 08:09:25;;;;;;;4.60;3.47;;;;;;;;;;5095412;28;20060;-72
2021/08/04 08:11:52;;;;;;;3.67;3.30;;;;;;;;;;5095325;28;20127;-71
2021/08/04 08:14:19;;;;;;;3.55;2.75;;;;;;;;;;5095405;28;20077;-72
2021/08/04 08:16:45;;;;;;;7.20;3.05;;;;;;;;;;5095342;28;20031;-72
2021/08/04 08:19:11;;;;;;;6.82;2.47;;;;;;;;;;5094958;28;20032;-72
2021/08/04 08:21:37;;;;;;;2.70;2.35;;;;;;;;;;5095736;28;20016;-72
2021/08/04 08:24:04;;;;;;;6.63;3.03;;;;;;;;;;5095079;28;20378;-72
2021/08/04 08:26:30;;;;;;;7.32;2.78;;;;;;;;;;5095155;28;20051;-73
2021/08/04 08:28:56;;;;;;;4.03;2.90;;;;;;;;;;5095197;28;20077;-73
2021/08/04 08:31:22;;;;;;;2.28;2.05;;;;;;;;;;5095125;28;20066;-72
2021/08/04 08:33:48;;;;;;;5.88;2.88;;;;;;;;;;5095018;28;20047;-72
2021/08/04 08:36:15;;;;;;;3.50;2.55;;;;;;;;;;5095691;28;20068;-72
2021/08/04 08:38:41;;;;;;;3.20;2.78;;;;;;;;;;5094915;28;20024;-72
2021/08/04 08:41:08;;;;;;;8.55;2.42;;;;;;;;;;5095458;28;20028;-75
2021/08/04 08:43:34;;;;;;;2.60;2.10;;;;;;;;;;5095599;28;20090;-75
2021/08/04 08:46:01;;;;;;;4.35;2.50;;;;;;;;;;5095332;28;20034;-74
2021/08/04 08:48:27;;;;;;;2.50;2.30;;;;;;;;;;5094057;28;20031;-74
2021/08/04 08:50:53;;;;;;;7.55;2.67;;;;;;;;;;5095014;28;20103;-74
2021/08/04 08:53:20;;;;;;;3.92;2.20;;;;;;;;;;5094812;28;20159;-75
2021/08/04 08:55:46;;;;;;;3.53;2.83;;;;;;;;;;5094097;28;20049;-74
2021/08/04 08:58:13;;;;;;;3.63;2.80;;;;;;;;;;5094470;28;20055;-72
2021/08/04 09:00:39;;;;;;;4.22;2.22;;;;;;;;;;5094057;28;20027;-72
2021/08/04 09:03:05;;;;;;;3.60;2.72;;;;;;;;;;5093784;28;20032;-73
2021/08/04 09:05:31;;;;;;;3.15;2.63;;;;;;;;;;5094031;28;20038;-74
2021/08/04 09:07:57;;;;;;;2.90;1.90;;;;;;;;;;5095060;28;20135;-75
2021/08/04 09:10:25;;;;;;;3.30;1.70;;;;;;;;;;5095775;28;20024;-72
2021/08/04 09:12:52;;;;;;;3.20;2.30;;;;;;;;;;5092909;28;20534;-72
2021/08/04 09:15:26;;;;;;;2.33;2.13;;;;;;;;;;5093652;28;20028;-72
2021/08/04 09:18:09;;;;;;;2.10;1.90;;;;;;;;;;5093773;28;20027;-74
2021/08/04 09:20:44;;;;;;;2.30;2.10;;;;;;;;;;5091511;28;20035;-74
2021/08/04 09:23:14;;;;;;;2.50;2.10;;;;;;;;;;5093246;28;20350;-73
2021/08/04 09:25:41;;;;;;;4.35;2.85;;;;;;;;;;5094291;28;20111;-73
2021/08/04 09:28:07;;;;;;;9.18;1.98;;;;;;;;;;5093808;28;20058;-74
2021/08/04 09:30:35;;;;;;;11.93;2.47;;;;;;;;;;5093536;28;20362;-72
2021/08/04 09:33:17;;;;;;;3.22;2.22;;;;;;;;;;5092748;28;20107;-73
2021/08/04 09:35:51;;;;;;;6.47;1.90;;;;;;;;;;5072351;28;20380;-76
2021/08/04 09:38:18;;;;;;;5.03;3.05;;;;;;;;;;5073560;28;20024;-76
2021/08/04 09:40:44;;;;;;;4.00;2.55;;;;;;;;;;5076051;28;20021;-78
2021/08/04 09:43:11;;;;;;;5.45;2.45;;;;;;;;;;5095210;28;20137;-75
2021/08/04 09:45:38;;;;;;;3.53;2.80;;;;;;;;;;5094858;28;20492;-77
2021/08/04 09:48:07;;;;;;;12.13;2.58;;;;;;;;;;5094341;28;20096;-94
2021/08/04 09:50:53;;;;;;;16.05;6.18;;;;;;;;;;5095063;28;20385;-78
2021/08/04 09:53:23;;;;;;;11.32;5.35;;;;;;;;;;5067296;28;20040;-82
2021/08/04 09:56:09;;;;;;;31.75;13.55;;;;;;;;;;5079150;28;20016;-79
2021/08/04 09:58:35;;;;;;;26.10;12.52;;;;;;;;;;5068607;28;20073;-79
2021/08/04 10:01:02;;;;;;;18.17;8.18;;;;;;;;;;5081985;28;20056;-77
2021/08/04 10:03:28;;;;;;;16.75;7.45;;;;;;;;;;5081740;28;20060;-82
2021/08/04 10:05:54;;;;;;;17.67;8.68;;;;;;;;;;5081974;28;20036;-79
2021/08/04 10:08:20;;;;;;;29.35;15.35;;;;;;;;;;5083223;28;20075;-79
2021/08/04 10:10:51;;;;;;;17.88;11.20;;;;;;;;;;5081351;28;20032;-81
2021/08/04 10:13:18;;;;;;;13.27;6.85;;;;;;;;;;5081983;28;20020;-83
2021/08/04 10:15:45;;;;;;;13.40;8.48;;;;;;;;;;5082979;28;20016;-81
2021/08/04 10:18:12;;;;;;;15.57;6.57;;;;;;;;;;5073596;28;20114;-81
2021/08/04 10:20:39;;;;;;;18.85;16.38;;;;;;;;;;5078457;28;20036;-81
2021/08/04 10:23:07;;;;;;;16.48;12.88;;;;;;;;;;5084746;28;20020;-78
2021/08/04 10:25:33;;;;;;;13.00;9.27;;;;;;;;;;5083173;28;20086;-79
2021/08/04 10:28:03;;;;;;;17.40;9.70;;;;;;;;;;5081390;28;20099;-78
2021/08/04 10:30:29;;;;;;;11.18;7.55;;;;;;;;;;5082475;28;20020;-76
2021/08/04 10:32:56;;;;;;;16.48;7.25;;;;;;;;;;5078908;28;20082;-78
2021/08/04 10:35:22;;;;;;;18.25;8.25;;;;;;;;;;5088365;28;20016;-78
2021/08/04 10:37:48;;;;;;;11.48;7.57;;;;;;;;;;5086265;28;20036;-78
2021/08/04 10:40:14;;;;;;;15.30;8.13;;;;;;;;;;5086877;28;20481;-79
2021/08/04 10:42:42;;;;;;;16.48;13.52;;;;;;;;;;5090916;28;20066;-83
2021/08/04 10:45:28;;;;;;;15.05;6.32;;;;;;;;;;5095556;28;20024;-82
2021/08/04 10:47:56;;;;;;;9.77;5.20;;;;;;;;;;5073260;28;20024;-78
2021/08/04 10:50:22;;;;;;;11.25;5.93;;;;;;;;;;5085132;28;20103;-82
2021/08/04 10:53:05;;;;;;;11.88;5.70;;;;;;;;;;5086365;28;20048;-89
2021/08/04 10:55:51;;;;;;;10.38;7.15;;;;;;;;;;5086600;28;20504;-84
2021/08/04 10:58:17;;;;;;;5.18;4.03;;;;;;;;;;5073263;28;20509;-85
2021/08/04 11:00:43;;;;;;;15.90;5.28;;;;;;;;;;5086524;28;20032;-83
2021/08/04 11:03:29;;;;;;;6.45;4.15;;;;;;;;;;5084923;28;20016;-78
2021/08/04 11:06:03;;;;;;;9.90;6.60;;;;;;;;;;5070260;28;20036;-79
2021/08/04 11:08:33;;;;;;;15.90;11.30;;;;;;;;;;5098101;28;20028;-82
2021/08/04 11:10:59;;;;;;;13.57;4.45;;;;;;;;;;5097040;28;20017;-87
2021/08/04 11:13:45;;;;;;;88.70;80.13;;;;;;;;;;5096259;28;20047;-81
2021/08/04 11:16:31;;;;;;;5.75;5.15;;;;;;;;;;5074023;28;20028;-92
2021/08/04 11:19:01;;;;;;;13.10;11.70;;;;;;;;;;5065892;28;20020;-88
2021/08/04 11:21:27;;;;;;;12.80;9.27;;;;;;;;;;5091374;28;20019;-90
2021/08/04 11:23:53;;;;;;;15.77;5.90;;;;;;;;;;5095120;28;20497;-93
2021/08/04 11:26:23;;;;;;;6.55;5.90;;;;;;;;;;5095098;28;20036;-86
2021/08/04 11:28:49;;;;;;;6.88;5.55;;;;;;;;;;5092762;28;20119;-89
2021/08/04 11:31:17;;;;;;;6.05;5.45;;;;;;;;;;5095492;28;20382;-83
2021/08/04 11:33:43;;;;;;;5.97;4.93;;;;;;;;;;5095223;28;20095;-91
2021/08/04 11:36:11;;;;;;;7.13;5.40;;;;;;;;;;5095363;28;20028;-87
2021/08/04 11:38:57;;;;;;;6.07;4.40;;;;;;;;;;5094828;28;20086;-89
2021/08/04 11:41:28;;;;;;;12.82;11.02;;;;;;;;;;5073812;28;20023;-81
2021/08/04 11:43:59;;;;;;;7.80;6.38;;;;;;;;;;5079567;28;20036;-80
2021/08/04 11:46:29;;;;;;;7.70;5.70;;;;;;;;;;5084203;28;20085;-83
2021/08/04 11:48:55;;;;;;;6.32;5.38;;;;;;;;;;5092221;28;20246;-80
2021/08/04 11:51:41;;;;;;;12.60;11.38;;;;;;;;;;5094472;28;20027;-75
2021/08/04 11:54:07;;;;;;;6.82;6.15;;;;;;;;;;5064731;28;20135;-76
2021/08/04 11:56:33;;;;;;;6.07;4.53;;;;;;;;;;5070865;28;20039;-81
2021/08/04 11:59:01;;;;;;;6.38;4.85;;;;;;;;;;5074122;28;20374;-78
2021/08/04 12:01:27;;;;;;;6.47;5.85;;;;;;;;;;5074206;28;20474;-80
2021/08/04 12:04:09;;;;;;;8.68;6.72;;;;;;;;;;5074044;28;20024;-85
2021/08/04 12:06:37;;;;;;;8.52;7.05;;;;;;;;;;5071800;28;20067;-84
2021/08/04 12:09:23;;;;;;;6.85;6.18;;;;;;;;;;5073688;28;20545;-84
2021/08/04 12:11:49;;;;;;;6.50;5.20;;;;;;;;;;5062310;28;20065;-80
2021/08/04 12:14:19;;;;;;;7.70;7.00;;;;;;;;;;5064588;28;20340;-81
2021/08/04 12:16:45;;;;;;;5.82;4.82;;;;;;;;;;5064796;28;20029;-92
2021/08/04 12:19:11;;;;;;;8.43;7.57;;;;;;;;;;5062929;28;20021;-80
2021/08/04 12:21:37;;;;;;;11.10;5.18;;;;;;;;;;5064049;28;20025;-77
2021/08/04 12:24:05;;;;;;;6.00;5.47;;;;;;;;;;5063927;28;20478;-88
2021/08/04 12:26:47;;;;;;;8.30;4.75;;;;;;;;;;5062698;28;20033;-77
2021/08/04 12:29:17;;;;;;;5.50;4.82;;;;;;;;;;5062609;28;20550;-85
2021/08/04 12:31:59;;;;;;;3.83;3.42;;;;;;;;;;5063319;28;20805;-86
2021/08/04 12:34:25;;;;;;;4.45;3.58;;;;;;;;;;5069913;28;20025;-85
2021/08/04 12:36:54;;;;;;;4.90;3.40;;;;;;;;;;5073624;28;20052;-79
2021/08/04 12:39:21;;;;;;;5.85;4.07;;;;;;;;;;5073589;28;20026;-76
2021/08/04 12:41:49;;;;;;;7.72;4.07;;;;;;;;;;5073119;28;20082;-82
2021/08/04 12:44:16;;;;;;;5.68;5.18;;;;;;;;;;5071339;28;20083;-85
2021/08/04 12:46:42;;;;;;;5.97;4.55;;;;;;;;;;5073573;28;20025;-81
2021/08/04 12:49:17;;;;;;;3.97;3.65;;;;;;;;;;5073701;28;20408;-88
2021/08/04 12:51:53;;;;;;;3.92;3.60;;;;;;;;;;5072188;28;20522;-79
2021/08/04 12:54:26;;;;;;;4.07;3.65;;;;;;;;;;5088902;28;20036;-80
2021/08/04 12:56:52;;;;;;;8.20;4.78;;;;;;;;;;5093072;28;20064;-78
2021/08/04 12:59:22;;;;;;;5.00;4.57;;;;;;;;;;5093192;28;20470;-84
2021/08/04 13:01:48;;;;;;;3.83;3.42;;;;;;;;;;5093547;28;20020;-78
2021/08/04 13:04:25;;;;;;;6.25;4.28;;;;;;;;;;5093356;28;20020;-80
2021/08/04 13:06:55;;;;;;;10.30;6.50;;;;;;;;;;5094392;28;20027;-78
2021/08/04 13:09:22;;;;;;;3.83;3.40;;;;;;;;;;5094808;28;20023;-80
2021/08/04 13:11:49;;;;;;;5.32;3.88;;;;;;;;;;5095817;28;20052;-79
2021/08/04 13:14:15;;;;;;;8.25;7.40;;;;;;;;;;5095940;28;20767;-82
2021/08/04 13:16:41;;;;;;;7.40;6.63;;;;;;;;;;5096817;28;20028;-81
2021/08/04 13:19:23;;;;;;;27.63;25.05;;;;;;;;;;5095602;28;20048;-78
2021/08/04 13:21:57;;;;;;;4.93;3.40;;;;;;;;;;5097073;28;20466;-81
2021/08/04 13:24:31;;;;;;;10.45;9.45;;;;;;;;;;5096993;28;20351;-87
2021/08/04 13:26:57;;;;;;;6.60;6.07;;;;;;;;;;5097668;28;20362;-79
2021/08/04 13:29:31;;;;;;;8.25;3.20;;;;;;;;;;5096424;28;20020;-80
2021/08/04 13:31:58;;;;;;;3.55;2.90;;;;;;;;;;5095760;28;20488;-76
2021/08/04 13:34:24;;;;;;;3.00;2.78;;;;;;;;;;5095219;28;20027;-76
2021/08/04 13:36:52;;;;;;;17.33;4.07;;;;;;;;;;5095235;28;20556;-79
2021/08/04 13:39:19;;;;;;;9.40;3.08;;;;;;;;;;5093978;28;20037;-78
2021/08/04 13:41:45;;;;;;;2.80;2.60;;;;;;;;;;5094393;28;20031;-79
2021/08/04 13:44:11;;;;;;;2.90;2.70;;;;;;;;;;5094774;28;20031;-79
2021/08/04 13:46:37;;;;;;;3.35;2.63;;;;;;;;;;5094035;28;20040;-79
2021/08/04 13:49:03;;;;;;;3.15;2.83;;;;;;;;;;5094301;28;20111;-78
2021/08/04 13:51:29;;;;;;;2.75;2.53;;;;;;;;;;5094231;28;20028;-79
2021/08/04 13:53:55;;;;;;;5.72;2.92;;;;;;;;;;5094520;28;20048;-79
2021/08/04 13:56:21;;;;;;;4.78;2.97;;;;;;;;;;5094259;28;20374;-78
2021/08/04 13:58:47;;;;;;;3.00;2.70;;;;;;;;;;5094529;28;20107;-78
2021/08/04 14:01:14;;;;;;;2.75;2.55;;;;;;;;;;5094362;28;20493;-77
2021/08/04 14:03:40;;;;;;;4.15;2.47;;;;;;;;;;5094216;28;20055;-78
2021/08/04 14:06:06;;;;;;;3.30;3.00;;;;;;;;;;5094178;28;20035;-78
2021/08/04 14:08:33;;;;;;;2.85;2.55;;;;;;;;;;5097886;28;20107;-77
2021/08/04 14:10:59;;;;;;;3.22;2.92;;;;;;;;;;5098424;28;20032;-78
2021/08/04 14:13:25;;;;;;;5.15;3.15;;;;;;;;;;5098063;28;20105;-78
2021/08/04 14:15:51;;;;;;;3.10;2.80;;;;;;;;;;5097810;28;20020;-78
2021/08/04 14:18:17;;;;;;;3.70;2.63;;;;;;;;;;5097686;28;20526;-82
2021/08/04 14:20:43;;;;;;;6.82;3.42;;;;;;;;;;5097550;28;20122;-82
2021/08/04 14:23:09;;;;;;;2.50;2.30;;;;;;;;;;5098398;28;20028;-78
2021/08/04 14:25:36;;;;;;;3.10;2.80;;;;;;;;;;5097445;28;20044;-91
2021/08/04 14:28:02;;;;;;;2.55;2.30;;;;;;;;;;5097520;28;20145;-82
2021/08/04 14:30:28;;;;;;;2.60;2.38;;;;;;;;;;5097178;28;20028;-85
2021/08/04 14:32:54;;;;;;;6.13;2.58;;;;;;;;;;5097353;28;20028;-87
2021/08/04 14:35:21;;;;;;;3.05;2.25;;;;;;;;;;5097343;28;20035;-80
2021/08/04 14:37:47;;;;;;;2.90;2.58;;;;;;;;;;5097962;28;20032;-78
2021/08/04 14:40:13;;;;;;;2.45;2.25;;;;;;;;;;5097303;28;20024;-83
2021/08/04 14:42:39;;;;;;;2.78;2.53;;;;;;;;;;5097403;28;20020;-83